HJW weather

J.W. Marriott Heliport
Miguel Hidalgo, Distrito Federal, Mexico

Public forecast

Using degrees Celsius for public forecast. Weather courtesy of forecast.io.

METAR (pilot weather report)

Closest report is Licenciado Benito Juarez International Airport, 6.9 nm (12.9 km) E. Retrieved 2019/09/21 12:44 UTC (0 seconds ago):

MMMX 211244Z 08007KT 6SM BKN025 13/11 A3038 NOSIG RMK 8/500 HZY AC

TAF (pilot weather forecast)

Closest forecast is Licenciado Benito Juarez International Airport, 6.9 nm (12.9 km) E. Retrieved 2019/09/21 12:39 UTC (0 seconds ago):

TAF MMMX 211117Z 2112/2218 30005KT 5SM HZ BKN020 TX25/2121Z TN12/2112Z FM211400 08005KT P6SM SCT020 FM211900 13010KT P6SM SCT020 FM212100 13012KT P6SM SCT020CB BKN080 PROB40 2122/2202 3SM TSRA FM220300 30005KT P6SM SCT020 BKN080 FM221600 13005KT P6SM SCT020